Ashfield, Pennsylvania
Current Conditions -  °F | °C
As of 1:51 AM on Thursday 27 Nov 2014 (Local Time) from KABE Reporting Station
Overcast Overcast  
Wind Chill: 29°   Ceiling: 2000
Heat Index: 35°   Visibility: 10mi
Dew Point: 28°   Wind: 8mph
Humidity: 76%   Direction: 260°W
Pressure: 29.93"   Gusts: NA
Location:  40.78°N, 75.71°W
Report Text: KABE 270651Z 26007KT 10SM BKN020 OVC060 02/M02 A2993 RMK AO2 SLP138 T00171022 $
Loading
Personal Weather Stations






























Interactive Weather Map New forecast layout! Learn more

10-Day Weather Forecast

Advertisements
Track Severe Weather on mobile